sensor_id;sensor_type;location;lat;lon;timestamp;P1;durP1;ratioP1;P2;durP2;ratioP2
78916;SDS011;68315;48.608;11.436;2023-04-24T00:00:33;4.07;;;3.05;;
78916;SDS011;68315;48.608;11.436;2023-04-24T00:02:59;3.47;;;2.75;;
78916;SDS011;68315;48.608;11.436;2023-04-24T00:05:28;5.95;;;2.92;;
78916;SDS011;68315;48.608;11.436;2023-04-24T00:07:55;5.68;;;2.97;;
78916;SDS011;68315;48.608;11.436;2023-04-24T00:10:21;2.83;;;2.33;;
78916;SDS011;68315;48.608;11.436;2023-04-24T00:12:47;3.45;;;2.70;;
78916;SDS011;68315;48.608;11.436;2023-04-24T00:15:13;2.42;;;2.22;;
78916;SDS011;68315;48.608;11.436;2023-04-24T00:17:38;3.58;;;2.78;;
78916;SDS011;68315;48.608;11.436;2023-04-24T00:20:04;4.22;;;2.47;;
78916;SDS011;68315;48.608;11.436;2023-04-24T00:22:31;2.72;;;2.20;;
78916;SDS011;68315;48.608;11.436;2023-04-24T00:24:57;2.50;;;2.30;;
78916;SDS011;68315;48.608;11.436;2023-04-24T00:27:22;2.60;;;2.28;;
78916;SDS011;68315;48.608;11.436;2023-04-24T00:29:48;3.03;;;2.17;;
78916;SDS011;68315;48.608;11.436;2023-04-24T00:32:17;6.70;;;2.53;;
78916;SDS011;68315;48.608;11.436;2023-04-24T00:34:42;2.60;;;2.38;;
78916;SDS011;68315;48.608;11.436;2023-04-24T00:37:08;1.92;;;1.77;;
78916;SDS011;68315;48.608;11.436;2023-04-24T00:39:36;2.47;;;2.03;;
78916;SDS011;68315;48.608;11.436;2023-04-24T00:42:01;2.45;;;2.20;;
78916;SDS011;68315;48.608;11.436;2023-04-24T00:44:31;2.40;;;2.13;;
78916;SDS011;68315;48.608;11.436;2023-04-24T00:46:58;2.40;;;2.20;;
78916;SDS011;68315;48.608;11.436;2023-04-24T00:49:26;4.00;;;2.28;;
78916;SDS011;68315;48.608;11.436;2023-04-24T00:51:52;2.72;;;2.25;;
78916;SDS011;68315;48.608;11.436;2023-04-24T00:54:19;3.00;;;2.17;;
78916;SDS011;68315;48.608;11.436;2023-04-24T00:56:44;2.30;;;2.10;;
78916;SDS011;68315;48.608;11.436;2023-04-24T00:59:11;2.00;;;1.80;;
78916;SDS011;68315;48.608;11.436;2023-04-24T01:01:43;2.33;;;2.00;;
78916;SDS011;68315;48.608;11.436;2023-04-24T01:04:10;3.92;;;1.98;;
78916;SDS011;68315;48.608;11.436;2023-04-24T01:06:39;2.25;;;1.90;;
78916;SDS011;68315;48.608;11.436;2023-04-24T01:09:05;4.40;;;2.05;;
78916;SDS011;68315;48.608;11.436;2023-04-24T01:11:36;2.55;;;1.95;;
78916;SDS011;68315;48.608;11.436;2023-04-24T01:14:02;2.00;;;1.80;;
78916;SDS011;68315;48.608;11.436;2023-04-24T01:16:30;1.98;;;1.77;;
78916;SDS011;68315;48.608;11.436;2023-04-24T01:18:58;1.60;;;1.50;;
78916;SDS011;68315;48.608;11.436;2023-04-24T01:21:24;2.33;;;1.67;;
78916;SDS011;68315;48.608;11.436;2023-04-24T01:23:52;2.30;;;1.67;;
78916;SDS011;68315;48.608;11.436;2023-04-24T01:26:22;4.43;;;2.05;;
78916;SDS011;68315;48.608;11.436;2023-04-24T01:28:52;2.08;;;1.63;;
78916;SDS011;68315;48.608;11.436;2023-04-24T01:31:18;2.55;;;1.42;;
78916;SDS011;68315;48.608;11.436;2023-04-24T01:33:44;2.55;;;1.65;;
78916;SDS011;68315;48.608;11.436;2023-04-24T01:36:27;2.17;;;1.60;;
78916;SDS011;68315;48.608;11.436;2023-04-24T01:39:04;2.38;;;1.58;;
78916;SDS011;68315;48.608;11.436;2023-04-24T01:41:40;3.58;;;1.65;;
78916;SDS011;68315;48.608;11.436;2023-04-24T01:44:14;2.35;;;2.15;;
78916;SDS011;68315;48.608;11.436;2023-04-24T01:46:44;3.17;;;1.80;;
78916;SDS011;68315;48.608;11.436;2023-04-24T01:49:19;2.85;;;1.42;;
78916;SDS011;68315;48.608;11.436;2023-04-24T01:51:45;4.22;;;1.70;;
78916;SDS011;68315;48.608;11.436;2023-04-24T01:54:10;2.42;;;1.65;;
78916;SDS011;68315;48.608;11.436;2023-04-24T01:56:40;1.80;;;1.70;;
78916;SDS011;68315;48.608;11.436;2023-04-24T01:59:07;1.95;;;1.60;;
78916;SDS011;68315;48.608;11.436;2023-04-24T02:01:43;2.05;;;1.30;;
78916;SDS011;68315;48.608;11.436;2023-04-24T02:04:11;2.85;;;1.45;;
78916;SDS011;68315;48.608;11.436;2023-04-24T02:06:37;2.20;;;1.50;;
78916;SDS011;68315;48.608;11.436;2023-04-24T02:09:02;1.52;;;1.33;;
78916;SDS011;68315;48.608;11.436;2023-04-24T02:11:28;2.03;;;1.40;;
78916;SDS011;68315;48.608;11.436;2023-04-24T02:13:53;5.72;;;1.40;;
78916;SDS011;68315;48.608;11.436;2023-04-24T02:16:21;1.50;;;1.30;;
78916;SDS011;68315;48.608;11.436;2023-04-24T02:18:47;1.45;;;1.25;;
78916;SDS011;68315;48.608;11.436;2023-04-24T02:21:18;2.15;;;1.42;;
78916;SDS011;68315;48.608;11.436;2023-04-24T02:23:46;3.78;;;1.65;;
78916;SDS011;68315;48.608;11.436;2023-04-24T02:26:12;1.67;;;1.50;;
78916;SDS011;68315;48.608;11.436;2023-04-24T02:28:37;1.60;;;1.38;;
78916;SDS011;68315;48.608;11.436;2023-04-24T02:31:23;1.65;;;1.55;;
78916;SDS011;68315;48.608;11.436;2023-04-24T02:33:51;2.17;;;1.60;;
78916;SDS011;68315;48.608;11.436;2023-04-24T02:36:19;2.83;;;1.55;;
78916;SDS011;68315;48.608;11.436;2023-04-24T02:39:02;2.35;;;1.33;;
78916;SDS011;68315;48.608;11.436;2023-04-24T02:41:30;1.40;;;1.30;;
78916;SDS011;68315;48.608;11.436;2023-04-24T02:44:00;1.58;;;1.48;;
78916;SDS011;68315;48.608;11.436;2023-04-24T02:46:26;1.95;;;1.20;;
78916;SDS011;68315;48.608;11.436;2023-04-24T02:48:51;1.50;;;1.40;;
78916;SDS011;68315;48.608;11.436;2023-04-24T02:51:17;2.33;;;1.50;;
78916;SDS011;68315;48.608;11.436;2023-04-24T02:53:45;2.30;;;1.25;;
78916;SDS011;68315;48.608;11.436;2023-04-24T02:56:18;1.48;;;1.38;;
78916;SDS011;68315;48.608;11.436;2023-04-24T02:58:57;1.52;;;1.30;;
78916;SDS011;68315;48.608;11.436;2023-04-24T03:01:25;1.40;;;1.30;;
78916;SDS011;68315;48.608;11.436;2023-04-24T03:04:02;1.48;;;1.10;;
78916;SDS011;68315;48.608;11.436;2023-04-24T03:06:28;1.92;;;1.45;;
78916;SDS011;68315;48.608;11.436;2023-04-24T03:08:53;1.35;;;1.20;;
78916;SDS011;68315;48.608;11.436;2023-04-24T03:11:21;1.80;;;1.33;;
78916;SDS011;68315;48.608;11.436;2023-04-24T03:13:50;2.03;;;1.42;;
78916;SDS011;68315;48.608;11.436;2023-04-24T03:16:15;2.25;;;1.30;;
78916;SDS011;68315;48.608;11.436;2023-04-24T03:18:40;1.42;;;1.30;;
78916;SDS011;68315;48.608;11.436;2023-04-24T03:21:06;2.45;;;1.40;;
78916;SDS011;68315;48.608;11.436;2023-04-24T03:23:31;4.70;;;1.50;;
78916;SDS011;68315;48.608;11.436;2023-04-24T03:25:56;1.40;;;1.30;;
78916;SDS011;68315;48.608;11.436;2023-04-24T03:28:22;2.38;;;1.20;;
78916;SDS011;68315;48.608;11.436;2023-04-24T03:30:48;2.55;;;1.45;;
78916;SDS011;68315;48.608;11.436;2023-04-24T03:33:16;1.80;;;1.17;;
78916;SDS011;68315;48.608;11.436;2023-04-24T03:35:41;2.33;;;1.40;;
78916;SDS011;68315;48.608;11.436;2023-04-24T03:38:12;1.10;;;1.00;;
78916;SDS011;68315;48.608;11.436;2023-04-24T03:40:43;1.20;;;1.10;;
78916;SDS011;68315;48.608;11.436;2023-04-24T03:43:17;3.28;;;1.23;;
78916;SDS011;68315;48.608;11.436;2023-04-24T03:45:48;2.15;;;1.30;;
78916;SDS011;68315;48.608;11.436;2023-04-24T03:48:28;1.88;;;1.30;;
78916;SDS011;68315;48.608;11.436;2023-04-24T03:51:00;2.75;;;1.50;;
78916;SDS011;68315;48.608;11.436;2023-04-24T03:53:33;3.20;;;1.50;;
78916;SDS011;68315;48.608;11.436;2023-04-24T03:56:07;1.38;;;1.15;;
78916;SDS011;68315;48.608;11.436;2023-04-24T03:58:33;2.08;;;1.25;;
78916;SDS011;68315;48.608;11.436;2023-04-24T04:00:58;1.55;;;1.42;;
78916;SDS011;68315;48.608;11.436;2023-04-24T04:03:35;1.83;;;1.45;;
78916;SDS011;68315;48.608;11.436;2023-04-24T04:06:00;2.25;;;1.33;;
78916;SDS011;68315;48.608;11.436;2023-04-24T04:08:26;2.28;;;1.60;;
78916;SDS011;68315;48.608;11.436;2023-04-24T04:11:00;1.67;;;1.58;;
78916;SDS011;68315;48.608;11.436;2023-04-24T04:13:42;4.15;;;1.60;;
78916;SDS011;68315;48.608;11.436;2023-04-24T04:19:48;2.30;;;1.40;;
78916;SDS011;68315;48.608;11.436;2023-04-24T04:22:13;2.15;;;1.42;;
78916;SDS011;68315;48.608;11.436;2023-04-24T04:24:52;1.50;;;1.40;;
78916;SDS011;68315;48.608;11.436;2023-04-24T04:27:21;3.20;;;1.33;;
78916;SDS011;68315;48.608;11.436;2023-04-24T04:29:46;1.95;;;1.60;;
78916;SDS011;68315;48.608;11.436;2023-04-24T04:32:12;2.33;;;1.58;;
78916;SDS011;68315;48.608;11.436;2023-04-24T04:34:46;2.20;;;1.27;;
78916;SDS011;68315;48.608;11.436;2023-04-24T04:37:30;2.03;;;1.20;;
78916;SDS011;68315;48.608;11.436;2023-04-24T04:39:59;2.17;;;1.60;;
78916;SDS011;68315;48.608;11.436;2023-04-24T04:42:25;2.80;;;1.60;;
78916;SDS011;68315;48.608;11.436;2023-04-24T04:44:52;1.65;;;1.50;;
78916;SDS011;68315;48.608;11.436;2023-04-24T04:47:18;3.08;;;1.45;;
78916;SDS011;68315;48.608;11.436;2023-04-24T04:49:48;2.42;;;1.45;;
78916;SDS011;68315;48.608;11.436;2023-04-24T04:52:16;1.63;;;1.35;;
78916;SDS011;68315;48.608;11.436;2023-04-24T04:54:45;2.65;;;1.85;;
78916;SDS011;68315;48.608;11.436;2023-04-24T04:57:23;2.75;;;1.60;;
78916;SDS011;68315;48.608;11.436;2023-04-24T04:59:53;5.88;;;1.75;;
78916;SDS011;68315;48.608;11.436;2023-04-24T05:02:27;3.25;;;1.98;;
78916;SDS011;68315;48.608;11.436;2023-04-24T05:05:19;2.88;;;1.77;;
78916;SDS011;68315;48.608;11.436;2023-04-24T05:07:50;2.80;;;1.95;;
78916;SDS011;68315;48.608;11.436;2023-04-24T05:10:21;2.00;;;1.58;;
78916;SDS011;68315;48.608;11.436;2023-04-24T05:12:53;2.42;;;1.80;;
78916;SDS011;68315;48.608;11.436;2023-04-24T05:15:18;2.00;;;1.80;;
78916;SDS011;68315;48.608;11.436;2023-04-24T05:17:43;2.95;;;1.92;;
78916;SDS011;68315;48.608;11.436;2023-04-24T05:20:09;4.75;;;2.47;;
78916;SDS011;68315;48.608;11.436;2023-04-24T05:22:34;5.32;;;2.53;;
78916;SDS011;68315;48.608;11.436;2023-04-24T05:25:00;4.63;;;1.88;;
78916;SDS011;68315;48.608;11.436;2023-04-24T05:27:38;1.80;;;1.60;;
78916;SDS011;68315;48.608;11.436;2023-04-24T05:30:22;1.85;;;1.40;;
78916;SDS011;68315;48.608;11.436;2023-04-24T05:32:57;2.63;;;1.50;;
78916;SDS011;68315;48.608;11.436;2023-04-24T05:35:22;1.50;;;1.40;;
78916;SDS011;68315;48.608;11.436;2023-04-24T05:37:51;2.35;;;1.42;;
78916;SDS011;68315;48.608;11.436;2023-04-24T05:40:19;1.92;;;1.40;;
78916;SDS011;68315;48.608;11.436;2023-04-24T05:42:44;1.63;;;1.52;;
78916;SDS011;68315;48.608;11.436;2023-04-24T05:45:10;1.85;;;1.65;;
78916;SDS011;68315;48.608;11.436;2023-04-24T05:47:46;1.88;;;1.58;;
78916;SDS011;68315;48.608;11.436;2023-04-24T05:50:57;2.45;;;1.88;;
78916;SDS011;68315;48.608;11.436;2023-04-24T05:56:39;2.47;;;1.70;;
78916;SDS011;68315;48.608;11.436;2023-04-24T05:59:07;2.47;;;1.30;;
78916;SDS011;68315;48.608;11.436;2023-04-24T06:01:40;1.60;;;1.30;;
78916;SDS011;68315;48.608;11.436;2023-04-24T06:04:06;1.75;;;1.65;;
78916;SDS011;68315;48.608;11.436;2023-04-24T06:06:32;5.55;;;1.50;;
78916;SDS011;68315;48.608;11.436;2023-04-24T06:08:57;2.08;;;1.52;;
78916;SDS011;68315;48.608;11.436;2023-04-24T06:11:23;2.70;;;1.52;;
78916;SDS011;68315;48.608;11.436;2023-04-24T06:14:03;4.25;;;1.70;;
78916;SDS011;68315;48.608;11.436;2023-04-24T06:16:29;1.98;;;1.52;;
78916;SDS011;68315;48.608;11.436;2023-04-24T06:18:55;1.63;;;1.42;;
78916;SDS011;68315;48.608;11.436;2023-04-24T06:21:25;2.45;;;1.27;;
78916;SDS011;68315;48.608;11.436;2023-04-24T06:23:56;2.63;;;1.60;;
78916;SDS011;68315;48.608;11.436;2023-04-24T06:26:33;1.58;;;1.20;;
78916;SDS011;68315;48.608;11.436;2023-04-24T06:29:03;1.83;;;1.67;;
78916;SDS011;68315;48.608;11.436;2023-04-24T06:31:40;1.40;;;1.20;;
78916;SDS011;68315;48.608;11.436;2023-04-24T06:34:08;1.50;;;1.33;;
78916;SDS011;68315;48.608;11.436;2023-04-24T06:36:39;3.63;;;1.40;;
78916;SDS011;68315;48.608;11.436;2023-04-24T06:39:08;4.75;;;1.42;;
78916;SDS011;68315;48.608;11.436;2023-04-24T06:41:37;1.98;;;1.27;;
78916;SDS011;68315;48.608;11.436;2023-04-24T06:44:04;1.45;;;1.17;;
78916;SDS011;68315;48.608;11.436;2023-04-24T06:46:30;3.35;;;1.30;;
78916;SDS011;68315;48.608;11.436;2023-04-24T06:49:01;3.38;;;1.20;;
78916;SDS011;68315;48.608;11.436;2023-04-24T06:51:26;2.58;;;1.30;;
78916;SDS011;68315;48.608;11.436;2023-04-24T06:53:53;3.67;;;1.42;;
78916;SDS011;68315;48.608;11.436;2023-04-24T06:56:21;1.95;;;1.10;;
78916;SDS011;68315;48.608;11.436;2023-04-24T06:58:47;1.85;;;1.15;;
78916;SDS011;68315;48.608;11.436;2023-04-24T07:01:12;1.58;;;1.40;;
78916;SDS011;68315;48.608;11.436;2023-04-24T07:03:38;1.10;;;1.00;;
78916;SDS011;68315;48.608;11.436;2023-04-24T07:06:04;1.33;;;1.13;;
78916;SDS011;68315;48.608;11.436;2023-04-24T07:08:33;1.60;;;0.95;;
78916;SDS011;68315;48.608;11.436;2023-04-24T07:10:59;2.15;;;1.20;;
78916;SDS011;68315;48.608;11.436;2023-04-24T07:13:24;2.25;;;1.35;;
78916;SDS011;68315;48.608;11.436;2023-04-24T07:15:51;1.20;;;1.10;;
78916;SDS011;68315;48.608;11.436;2023-04-24T07:18:18;2.72;;;1.13;;
78916;SDS011;68315;48.608;11.436;2023-04-24T07:20:45;2.55;;;1.27;;
78916;SDS011;68315;48.608;11.436;2023-04-24T07:23:10;1.63;;;1.25;;
78916;SDS011;68315;48.608;11.436;2023-04-24T07:25:39;5.68;;;2.08;;
78916;SDS011;68315;48.608;11.436;2023-04-24T07:28:04;2.97;;;1.20;;
78916;SDS011;68315;48.608;11.436;2023-04-24T07:30:30;3.30;;;1.10;;
78916;SDS011;68315;48.608;11.436;2023-04-24T07:32:57;2.15;;;1.08;;
78916;SDS011;68315;48.608;11.436;2023-04-24T07:35:23;1.70;;;1.13;;
78916;SDS011;68315;48.608;11.436;2023-04-24T07:37:50;1.50;;;1.10;;
78916;SDS011;68315;48.608;11.436;2023-04-24T07:40:15;2.08;;;0.95;;
78916;SDS011;68315;48.608;11.436;2023-04-24T07:42:41;1.20;;;0.95;;
78916;SDS011;68315;48.608;11.436;2023-04-24T07:45:06;3.00;;;0.90;;
78916;SDS011;68315;48.608;11.436;2023-04-24T07:47:32;1.20;;;1.10;;
78916;SDS011;68315;48.608;11.436;2023-04-24T07:49:58;2.22;;;1.17;;
78916;SDS011;68315;48.608;11.436;2023-04-24T07:52:24;0.90;;;0.88;;
78916;SDS011;68315;48.608;11.436;2023-04-24T07:54:49;2.35;;;1.30;;
78916;SDS011;68315;48.608;11.436;2023-04-24T07:57:15;1.42;;;1.20;;
78916;SDS011;68315;48.608;11.436;2023-04-24T07:59:41;2.80;;;1.33;;
78916;SDS011;68315;48.608;11.436;2023-04-24T08:02:07;2.17;;;1.13;;
78916;SDS011;68315;48.608;11.436;2023-04-24T08:04:32;2.15;;;1.30;;
78916;SDS011;68315;48.608;11.436;2023-04-24T08:06:58;1.58;;;1.35;;
78916;SDS011;68315;48.608;11.436;2023-04-24T08:09:23;1.30;;;1.20;;
78916;SDS011;68315;48.608;11.436;2023-04-24T08:11:49;1.40;;;1.30;;
78916;SDS011;68315;48.608;11.436;2023-04-24T08:14:14;2.13;;;1.50;;
78916;SDS011;68315;48.608;11.436;2023-04-24T08:16:40;3.42;;;1.60;;
78916;SDS011;68315;48.608;11.436;2023-04-24T08:19:06;2.00;;;1.70;;
78916;SDS011;68315;48.608;11.436;2023-04-24T08:21:31;1.90;;;1.70;;
78916;SDS011;68315;48.608;11.436;2023-04-24T08:23:57;1.67;;;1.33;;
78916;SDS011;68315;48.608;11.436;2023-04-24T08:26:22;3.25;;;1.73;;
78916;SDS011;68315;48.608;11.436;2023-04-24T08:28:47;2.88;;;1.80;;
78916;SDS011;68315;48.608;11.436;2023-04-24T08:31:13;3.38;;;1.40;;
78916;SDS011;68315;48.608;11.436;2023-04-24T08:33:38;1.73;;;1.40;;
78916;SDS011;68315;48.608;11.436;2023-04-24T08:36:05;1.67;;;1.52;;
78916;SDS011;68315;48.608;11.436;2023-04-24T08:38:31;1.63;;;1.52;;
78916;SDS011;68315;48.608;11.436;2023-04-24T08:41:04;1.80;;;1.70;;
78916;SDS011;68315;48.608;11.436;2023-04-24T08:43:39;2.90;;;1.70;;
78916;SDS011;68315;48.608;11.436;2023-04-24T08:46:10;2.20;;;1.48;;
78916;SDS011;68315;48.608;11.436;2023-04-24T08:48:44;3.05;;;1.95;;
78916;SDS011;68315;48.608;11.436;2023-04-24T08:51:29;3.17;;;1.75;;
78916;SDS011;68315;48.608;11.436;2023-04-24T08:54:03;2.20;;;2.00;;
78916;SDS011;68315;48.608;11.436;2023-04-24T09:00:38;2.00;;;1.85;;
78916;SDS011;68315;48.608;11.436;2023-04-24T09:03:04;1.95;;;1.77;;
78916;SDS011;68315;48.608;11.436;2023-04-24T09:05:37;2.95;;;1.95;;
78916;SDS011;68315;48.608;11.436;2023-04-24T09:08:10;2.13;;;1.92;;
78916;SDS011;68315;48.608;11.436;2023-04-24T09:10:38;2.63;;;2.28;;
78916;SDS011;68315;48.608;11.436;2023-04-24T09:13:04;2.22;;;2.00;;
78916;SDS011;68315;48.608;11.436;2023-04-24T09:15:41;2.60;;;2.05;;
78916;SDS011;68315;48.608;11.436;2023-04-24T09:18:07;2.83;;;1.90;;
78916;SDS011;68315;48.608;11.436;2023-04-24T09:20:33;2.70;;;2.17;;
78916;SDS011;68315;48.608;11.436;2023-04-24T09:23:03;2.20;;;1.95;;
78916;SDS011;68315;48.608;11.436;2023-04-24T09:25:35;3.20;;;2.22;;
78916;SDS011;68315;48.608;11.436;2023-04-24T09:28:04;2.75;;;1.88;;
78916;SDS011;68315;48.608;11.436;2023-04-24T09:30:31;2.65;;;2.20;;
78916;SDS011;68315;48.608;11.436;2023-04-24T09:33:09;6.00;;;2.40;;
78916;SDS011;68315;48.608;11.436;2023-04-24T09:35:36;2.38;;;1.90;;
78916;SDS011;68315;48.608;11.436;2023-04-24T09:38:01;5.85;;;2.30;;
78916;SDS011;68315;48.608;11.436;2023-04-24T09:40:26;2.20;;;2.00;;
78916;SDS011;68315;48.608;11.436;2023-04-24T09:42:52;3.95;;;2.15;;
78916;SDS011;68315;48.608;11.436;2023-04-24T09:45:22;2.50;;;2.00;;
78916;SDS011;68315;48.608;11.436;2023-04-24T09:47:51;1.95;;;1.80;;
78916;SDS011;68315;48.608;11.436;2023-04-24T09:50:18;2.70;;;2.05;;
78916;SDS011;68315;48.608;11.436;2023-04-24T09:52:47;4.72;;;2.03;;
78916;SDS011;68315;48.608;11.436;2023-04-24T09:55:21;2.33;;;2.13;;
78916;SDS011;68315;48.608;11.436;2023-04-24T09:57:54;1.85;;;1.65;;
78916;SDS011;68315;48.608;11.436;2023-04-24T10:00:24;3.03;;;2.10;;
78916;SDS011;68315;48.608;11.436;2023-04-24T10:03:01;2.65;;;1.77;;
78916;SDS011;68315;48.608;11.436;2023-04-24T10:05:28;2.95;;;1.90;;
78916;SDS011;68315;48.608;11.436;2023-04-24T10:08:01;3.05;;;1.80;;
78916;SDS011;68315;48.608;11.436;2023-04-24T10:10:43;3.13;;;1.92;;
78916;SDS011;68315;48.608;11.436;2023-04-24T10:13:09;1.92;;;1.73;;
78916;SDS011;68315;48.608;11.436;2023-04-24T10:15:36;1.85;;;1.75;;
78916;SDS011;68315;48.608;11.436;2023-04-24T10:18:02;3.08;;;1.90;;
78916;SDS011;68315;48.608;11.436;2023-04-24T10:20:31;2.92;;;1.85;;
78916;SDS011;68315;48.608;11.436;2023-04-24T10:22:57;2.10;;;1.83;;
78916;SDS011;68315;48.608;11.436;2023-04-24T10:25:24;2.05;;;1.70;;
78916;SDS011;68315;48.608;11.436;2023-04-24T10:27:51;2.20;;;2.00;;
78916;SDS011;68315;48.608;11.436;2023-04-24T10:30:18;2.35;;;1.60;;
78916;SDS011;68315;48.608;11.436;2023-04-24T10:32:45;2.95;;;1.70;;
78916;SDS011;68315;48.608;11.436;2023-04-24T10:35:13;2.03;;;1.80;;
78916;SDS011;68315;48.608;11.436;2023-04-24T10:37:42;2.67;;;1.67;;
78916;SDS011;68315;48.608;11.436;2023-04-24T10:40:18;3.58;;;1.70;;
78916;SDS011;68315;48.608;11.436;2023-04-24T10:42:51;2.05;;;1.70;;
78916;SDS011;68315;48.608;11.436;2023-04-24T10:45:21;1.80;;;1.70;;
78916;SDS011;68315;48.608;11.436;2023-04-24T10:47:57;3.75;;;1.80;;
78916;SDS011;68315;48.608;11.436;2023-04-24T10:50:26;1.92;;;1.50;;
78916;SDS011;68315;48.608;11.436;2023-04-24T10:52:52;2.45;;;1.50;;
78916;SDS011;68315;48.608;11.436;2023-04-24T10:58:07;1.45;;;1.35;;
78916;SDS011;68315;48.608;11.436;2023-04-24T11:00:32;1.90;;;1.70;;
78916;SDS011;68315;48.608;11.436;2023-04-24T11:03:03;4.30;;;1.65;;
78916;SDS011;68315;48.608;11.436;2023-04-24T11:05:49;2.60;;;1.55;;
78916;SDS011;68315;48.608;11.436;2023-04-24T11:08:22;1.70;;;1.60;;
78916;SDS011;68315;48.608;11.436;2023-04-24T11:10:58;3.38;;;2.30;;
78916;SDS011;68315;48.608;11.436;2023-04-24T11:19:25;5.03;;;2.35;;
78916;SDS011;68315;48.608;11.436;2023-04-24T11:21:55;3.13;;;2.45;;
78916;SDS011;68315;48.608;11.436;2023-04-24T11:24:29;2.75;;;2.10;;
78916;SDS011;68315;48.608;11.436;2023-04-24T11:27:00;2.63;;;2.10;;
78916;SDS011;68315;48.608;11.436;2023-04-24T11:29:41;3.25;;;2.17;;
78916;SDS011;68315;48.608;11.436;2023-04-24T11:32:14;2.40;;;2.20;;
78916;SDS011;68315;48.608;11.436;2023-04-24T11:34:40;2.13;;;1.90;;
78916;SDS011;68315;48.608;11.436;2023-04-24T11:37:06;3.88;;;2.22;;
78916;SDS011;68315;48.608;11.436;2023-04-24T11:39:36;4.30;;;2.10;;
78916;SDS011;68315;48.608;11.436;2023-04-24T11:42:02;2.33;;;1.67;;
78916;SDS011;68315;48.608;11.436;2023-04-24T11:44:28;2.25;;;2.05;;
78916;SDS011;68315;48.608;11.436;2023-04-24T11:46:55;2.60;;;1.75;;
78916;SDS011;68315;48.608;11.436;2023-04-24T11:49:21;2.75;;;1.70;;
78916;SDS011;68315;48.608;11.436;2023-04-24T11:51:46;3.45;;;1.90;;
78916;SDS011;68315;48.608;11.436;2023-04-24T11:54:11;1.90;;;1.70;;
78916;SDS011;68315;48.608;11.436;2023-04-24T11:56:36;2.08;;;1.52;;
78916;SDS011;68315;48.608;11.436;2023-04-24T11:59:04;1.88;;;1.50;;
78916;SDS011;68315;48.608;11.436;2023-04-24T12:01:29;2.78;;;1.58;;
78916;SDS011;68315;48.608;11.436;2023-04-24T12:03:59;3.58;;;1.45;;
78916;SDS011;68315;48.608;11.436;2023-04-24T12:06:24;1.75;;;1.40;;
78916;SDS011;68315;48.608;11.436;2023-04-24T12:08:50;1.40;;;1.20;;
78916;SDS011;68315;48.608;11.436;2023-04-24T12:11:17;1.40;;;1.10;;
78916;SDS011;68315;48.608;11.436;2023-04-24T12:13:45;1.48;;;1.27;;
78916;SDS011;68315;48.608;11.436;2023-04-24T12:16:11;2.88;;;1.30;;
78916;SDS011;68315;48.608;11.436;2023-04-24T12:18:41;1.20;;;1.10;;
78916;SDS011;68315;48.608;11.436;2023-04-24T12:21:20;2.20;;;1.15;;
78916;SDS011;68315;48.608;11.436;2023-04-24T12:23:47;1.83;;;1.20;;
78916;SDS011;68315;48.608;11.436;2023-04-24T12:26:16;1.45;;;1.23;;
78916;SDS011;68315;48.608;11.436;2023-04-24T12:28:45;2.20;;;1.35;;
78916;SDS011;68315;48.608;11.436;2023-04-24T12:31:11;2.67;;;1.10;;
78916;SDS011;68315;48.608;11.436;2023-04-24T12:33:37;1.20;;;1.10;;
78916;SDS011;68315;48.608;11.436;2023-04-24T12:36:03;2.65;;;1.10;;
78916;SDS011;68315;48.608;11.436;2023-04-24T12:38:30;2.25;;;1.35;;
78916;SDS011;68315;48.608;11.436;2023-04-24T12:41:02;1.25;;;1.15;;
78916;SDS011;68315;48.608;11.436;2023-04-24T12:43:29;2.08;;;1.33;;
78916;SDS011;68315;48.608;11.436;2023-04-24T12:45:55;1.63;;;1.10;;
78916;SDS011;68315;48.608;11.436;2023-04-24T12:48:20;2.33;;;1.15;;
78916;SDS011;68315;48.608;11.436;2023-04-24T12:50:47;2.00;;;1.20;;
78916;SDS011;68315;48.608;11.436;2023-04-24T12:53:12;2.03;;;1.20;;
78916;SDS011;68315;48.608;11.436;2023-04-24T12:55:38;2.63;;;1.35;;
78916;SDS011;68315;48.608;11.436;2023-04-24T12:58:03;2.67;;;1.30;;
78916;SDS011;68315;48.608;11.436;2023-04-24T13:00:29;2.45;;;1.02;;
78916;SDS011;68315;48.608;11.436;2023-04-24T13:02:54;3.33;;;1.40;;
78916;SDS011;68315;48.608;11.436;2023-04-24T13:05:20;1.90;;;1.40;;
78916;SDS011;68315;48.608;11.436;2023-04-24T13:07:45;2.63;;;1.20;;
78916;SDS011;68315;48.608;11.436;2023-04-24T13:10:10;1.30;;;1.20;;
78916;SDS011;68315;48.608;11.436;2023-04-24T13:12:36;1.23;;;1.10;;
78916;SDS011;68315;48.608;11.436;2023-04-24T13:15:02;1.67;;;1.20;;
78916;SDS011;68315;48.608;11.436;2023-04-24T13:17:27;1.35;;;1.25;;
78916;SDS011;68315;48.608;11.436;2023-04-24T13:19:54;1.75;;;1.00;;
78916;SDS011;68315;48.608;11.436;2023-04-24T13:22:20;2.25;;;1.17;;
78916;SDS011;68315;48.608;11.436;2023-04-24T13:24:45;1.35;;;1.25;;
78916;SDS011;68315;48.608;11.436;2023-04-24T13:27:13;1.38;;;1.27;;
78916;SDS011;68315;48.608;11.436;2023-04-24T13:29:38;2.85;;;1.13;;
78916;SDS011;68315;48.608;11.436;2023-04-24T13:32:04;2.67;;;1.20;;
78916;SDS011;68315;48.608;11.436;2023-04-24T13:34:29;2.08;;;1.38;;
78916;SDS011;68315;48.608;11.436;2023-04-24T13:36:55;2.75;;;1.20;;
78916;SDS011;68315;48.608;11.436;2023-04-24T13:39:23;4.82;;;1.10;;
78916;SDS011;68315;48.608;11.436;2023-04-24T13:41:49;1.63;;;1.30;;
78916;SDS011;68315;48.608;11.436;2023-04-24T13:44:15;2.22;;;1.27;;
78916;SDS011;68315;48.608;11.436;2023-04-24T13:46:42;5.68;;;1.48;;
78916;SDS011;68315;48.608;11.436;2023-04-24T13:49:11;3.13;;;1.10;;
78916;SDS011;68315;48.608;11.436;2023-04-24T13:51:38;1.55;;;1.30;;
78916;SDS011;68315;48.608;11.436;2023-04-24T13:54:04;2.33;;;1.27;;
78916;SDS011;68315;48.608;11.436;2023-04-24T13:56:29;2.15;;;1.27;;
78916;SDS011;68315;48.608;11.436;2023-04-24T13:58:54;1.67;;;0.85;;
78916;SDS011;68315;48.608;11.436;2023-04-24T14:01:20;1.23;;;1.10;;
78916;SDS011;68315;48.608;11.436;2023-04-24T14:03:49;1.27;;;1.00;;
78916;SDS011;68315;48.608;11.436;2023-04-24T14:06:16;1.10;;;0.80;;
78916;SDS011;68315;48.608;11.436;2023-04-24T14:08:41;3.35;;;1.20;;
78916;SDS011;68315;48.608;11.436;2023-04-24T14:11:07;1.70;;;1.17;;
78916;SDS011;68315;48.608;11.436;2023-04-24T14:13:32;2.35;;;1.20;;
78916;SDS011;68315;48.608;11.436;2023-04-24T14:15:58;1.30;;;1.17;;
78916;SDS011;68315;48.608;11.436;2023-04-24T14:18:23;1.83;;;0.95;;
78916;SDS011;68315;48.608;11.436;2023-04-24T14:20:48;1.40;;;1.10;;
78916;SDS011;68315;48.608;11.436;2023-04-24T14:23:14;3.45;;;1.20;;
78916;SDS011;68315;48.608;11.436;2023-04-24T14:25:39;1.08;;;1.00;;
78916;SDS011;68315;48.608;11.436;2023-04-24T14:28:05;1.48;;;1.00;;
78916;SDS011;68315;48.608;11.436;2023-04-24T14:30:31;1.00;;;1.00;;
78916;SDS011;68315;48.608;11.436;2023-04-24T14:32:56;1.70;;;0.90;;
78916;SDS011;68315;48.608;11.436;2023-04-24T14:35:22;1.17;;;1.00;;
78916;SDS011;68315;48.608;11.436;2023-04-24T14:37:47;1.63;;;1.05;;
78916;SDS011;68315;48.608;11.436;2023-04-24T14:40:14;1.67;;;1.35;;
78916;SDS011;68315;48.608;11.436;2023-04-24T14:42:39;1.08;;;0.90;;
78916;SDS011;68315;48.608;11.436;2023-04-24T14:45:05;1.20;;;1.10;;
78916;SDS011;68315;48.608;11.436;2023-04-24T14:47:31;1.15;;;0.90;;
78916;SDS011;68315;48.608;11.436;2023-04-24T14:49:56;1.60;;;0.90;;
78916;SDS011;68315;48.608;11.436;2023-04-24T14:52:23;2.03;;;0.90;;
78916;SDS011;68315;48.608;11.436;2023-04-24T14:54:48;0.98;;;0.90;;
78916;SDS011;68315;48.608;11.436;2023-04-24T14:57:14;1.58;;;1.02;;
78916;SDS011;68315;48.608;11.436;2023-04-24T14:59:39;4.15;;;1.20;;